Time;durP1;ratioP1;P1;durP2;ratioP2;P2;SDS_P1;SDS_P2;PMS_P1;PMS_P2;Temp;Humidity;BMP_temperature;BMP_pressure;BME280_temperature;BME280_humidity;BME280_pressure;Samples;Min_cycle;Max_cycle;Signal;HPM_P1;HPM_P2
2021/01/25 00:02:18;;;;;;;36.70;16.50;;;;;;;0.04;87.55;98753.88;1745503;82;21574;-73
2021/01/25 00:04:45;;;;;;;43.73;16.35;;;;;;;0.05;87.55;98758.16;1745599;81;21184;-73
2021/01/25 00:07:11;;;;;;;40.33;19.55;;;;;;;0.03;87.55;98754.88;1745437;82;22103;-73
2021/01/25 00:09:37;;;;;;;26.07;15.08;;;;;;;0.05;87.56;98757.34;1745446;82;21187;-73
2021/01/25 00:12:05;;;;;;;38.40;17.62;;;;;;;0.04;87.57;98756.50;1756136;81;21167;-73
2021/01/25 00:14:31;;;;;;;33.50;16.97;;;;;;;0.03;87.58;98763.22;1751841;81;21644;-73
2021/01/25 00:16:57;;;;;;;29.32;15.28;;;;;;;0.03;87.59;98764.05;1787250;80;21159;-73
2021/01/25 00:19:23;;;;;;;25.72;12.43;;;;;;;0.01;87.60;98759.41;1787869;80;21964;-72
2021/01/25 00:21:50;;;;;;;20.48;11.68;;;;;;;-0.01;87.62;98763.51;1787822;80;21204;-73
2021/01/25 00:24:16;;;;;;;21.62;11.33;;;;;;;-0.03;87.61;98765.42;1787323;80;21128;-73
2021/01/25 00:26:42;;;;;;;20.92;11.48;;;;;;;-0.04;87.60;98769.52;1786545;80;21153;-73
2021/01/25 00:29:09;;;;;;;20.92;12.18;;;;;;;-0.05;87.63;98770.48;1781812;80;21128;-73
2021/01/25 00:31:36;;;;;;;22.70;12.20;;;;;;;-0.06;87.60;98771.44;1782104;80;22182;-73
2021/01/25 00:34:02;;;;;;;26.33;14.50;;;;;;;-0.04;87.62;98774.76;1787073;80;21128;-73
2021/01/25 00:36:28;;;;;;;27.87;16.27;;;;;;;-0.04;87.61;98780.83;1787279;80;21112;-73
2021/01/25 00:38:55;;;;;;;28.32;20.35;;;;;;;-0.03;87.63;98775.91;1787070;80;21175;-73
2021/01/25 00:41:21;;;;;;;32.28;19.35;;;;;;;-0.01;87.65;98779.70;1790059;79;21163;-73
2021/01/25 00:43:47;;;;;;;31.68;16.25;;;;;;;-0.01;87.64;98787.09;1793126;80;21556;-73
2021/01/25 00:46:14;;;;;;;40.52;20.37;;;;;;;-0.01;87.64;98782.33;1792660;80;21180;-73
2021/01/25 00:48:40;;;;;;;23.65;13.45;;;;;;;-0.01;87.65;98788.87;1793129;80;21218;-73
2021/01/25 00:51:07;;;;;;;21.68;12.25;;;;;;;0.00;87.66;98782.68;1792945;80;21151;-73
2021/01/25 00:53:33;;;;;;;19.30;11.43;;;;;;;0.00;87.65;98782.68;1793058;80;21826;-73
2021/01/25 00:56:00;;;;;;;17.07;10.03;;;;;;;-0.01;87.65;98784.95;1793154;80;21272;-73
2021/01/25 00:58:26;;;;;;;20.50;12.20;;;;;;;-0.02;87.63;98788.53;1793089;80;21148;-73
2021/01/25 01:00:52;;;;;;;21.23;11.90;;;;;;;-0.02;87.66;98794.59;1792947;80;21172;-73
2021/01/25 01:03:19;;;;;;;22.42;13.55;;;;;;;-0.02;87.67;98795.91;1792955;80;21170;-73
2021/01/25 01:05:46;;;;;;;24.95;15.20;;;;;;;-0.01;87.66;98807.22;1792620;80;21191;-73
2021/01/25 01:08:12;;;;;;;31.37;21.15;;;;;;;-0.01;87.66;98811.98;1792661;80;21534;-73
2021/01/25 01:10:38;;;;;;;36.77;22.27;;;;;;;0.01;87.67;98819.68;1793021;80;21191;-73
2021/01/25 01:13:04;;;;;;;31.95;19.23;;;;;;;0.01;87.65;98817.06;1786054;80;21181;-73
2021/01/25 01:15:31;;;;;;;35.40;22.75;;;;;;;0.02;87.68;98820.03;1729845;82;21166;-73
2021/01/25 01:17:57;;;;;;;21.68;13.83;;;;;;;0.02;87.67;98818.72;1761684;81;21137;-73
2021/01/25 01:20:23;;;;;;;22.67;12.90;;;;;;;0.03;87.67;98822.17;1761679;81;21220;-73
2021/01/25 01:22:50;;;;;;;25.02;15.05;;;;;;;0.03;87.69;98821.69;1761833;81;21101;-73
2021/01/25 01:25:16;;;;;;;25.32;14.23;;;;;;;0.01;87.67;98819.68;1731391;82;21154;-73
2021/01/25 01:27:43;;;;;;;27.58;14.07;;;;;;;0.00;87.67;98820.67;1761781;81;21121;-73
2021/01/25 01:30:11;;;;;;;31.10;15.15;;;;;;;-0.01;87.69;98834.25;1761173;81;21621;-73
2021/01/25 01:32:37;;;;;;;29.67;13.55;;;;;;;0.00;87.69;98839.02;1731410;82;21255;-73
2021/01/25 01:35:05;;;;;;;29.12;13.18;;;;;;;0.01;87.69;98841.95;1761643;81;21187;-73
2021/01/25 01:37:32;;;;;;;22.07;12.88;;;;;;;0.02;87.72;98831.83;1761740;81;21134;-73
2021/01/25 01:39:58;;;;;;;23.87;12.55;;;;;;;0.02;87.71;98837.06;1761688;81;21577;-73
2021/01/25 01:42:25;;;;;;;32.65;20.00;;;;;;;0.04;87.72;98829.05;1759756;81;21183;-73
2021/01/25 01:44:51;;;;;;;25.48;16.32;;;;;;;0.05;87.72;98829.39;1759636;81;21578;-73
2021/01/25 01:47:21;;;;;;;34.08;20.27;;;;;;;0.09;87.73;98829.45;1759268;81;21164;-73
2021/01/25 01:49:49;;;;;;;34.30;20.27;;;;;;;0.10;87.75;98838.98;1761001;81;21180;-73
2021/01/25 01:52:16;;;;;;;27.77;17.23;;;;;;;0.09;87.76;98847.32;1759581;81;21163;-73
2021/01/25 01:54:43;;;;;;;35.33;18.23;;;;;;;0.10;87.76;98848.98;1759346;81;21125;-73
2021/01/25 01:57:09;;;;;;;36.17;17.32;;;;;;;0.11;87.78;98857.16;1759537;81;21161;-73
2021/01/25 01:59:36;;;;;;;26.97;14.50;;;;;;;0.13;87.80;98865.73;1759499;81;21169;-73
2021/01/25 02:02:03;;;;;;;21.75;11.80;;;;;;;0.14;87.80;98871.80;1759564;81;21216;-73
2021/01/25 02:04:29;;;;;;;26.15;12.23;;;;;;;0.14;87.81;98873.11;1759365;81;21132;-73
2021/01/25 02:06:56;;;;;;;36.03;15.15;;;;;;;0.14;87.80;98877.84;1759652;81;21201;-73
2021/01/25 02:09:24;;;;;;;21.82;12.45;;;;;;;0.14;87.78;98875.22;1759501;81;22190;-73
2021/01/25 02:11:51;;;;;;;29.12;14.38;;;;;;;0.16;87.78;98880.34;1759552;81;21622;-73
2021/01/25 02:14:17;;;;;;;32.28;16.07;;;;;;;0.16;87.78;98882.95;1774622;80;21164;-73
2021/01/25 02:16:44;;;;;;;27.98;14.80;;;;;;;0.16;87.81;98886.41;1764566;81;21199;-73
2021/01/25 02:19:14;;;;;;;24.47;13.80;;;;;;;0.14;87.82;98884.91;1780616;80;21148;-73
2021/01/25 02:21:58;;;;;;;24.45;13.80;;;;;;;0.10;87.80;98881.73;1779791;79;21301;-73
2021/01/25 02:24:36;;;;;;;27.25;12.63;;;;;;;0.07;87.80;98878.58;1779856;80;21202;-73
2021/01/25 02:27:31;;;;;;;25.72;13.43;;;;;;;0.03;87.80;98875.41;1764630;81;21135;-73
2021/01/25 02:29:58;;;;;;;27.45;14.35;;;;;;;0.02;87.83;98867.20;1758283;80;21123;-73
2021/01/25 02:32:26;;;;;;;27.40;14.73;;;;;;;0.01;87.80;98873.39;1764701;81;21140;-73
2021/01/25 02:34:53;;;;;;;25.12;14.10;;;;;;;0.02;87.81;98872.44;1780311;80;21246;-73
2021/01/25 02:37:20;;;;;;;23.32;13.08;;;;;;;0.04;87.82;98874.42;1764471;81;21216;-73
2021/01/25 02:39:46;;;;;;;48.10;20.35;;;;;;;0.05;87.82;98881.33;1760297;79;21159;-73
2021/01/25 02:42:13;;;;;;;32.40;18.10;;;;;;;0.06;87.83;98889.53;1733163;82;21629;-73
2021/01/25 02:44:39;;;;;;;31.90;18.27;;;;;;;0.10;87.84;98886.15;1710735;81;21119;-73
2021/01/25 02:47:05;;;;;;;34.25;23.50;;;;;;;0.09;87.84;98890.56;1761812;81;22174;-74
2021/01/25 02:49:32;;;;;;;31.55;18.60;;;;;;;0.09;87.85;98889.25;1761939;81;21095;-74
2021/01/25 02:51:58;;;;;;;37.63;18.87;;;;;;;0.09;87.84;98889.25;1761854;81;21143;-73
2021/01/25 02:54:24;;;;;;;32.38;15.18;;;;;;;0.09;87.86;98891.04;1762057;81;21179;-73
2021/01/25 02:56:51;;;;;;;26.45;14.53;;;;;;;0.11;87.86;98885.99;1761789;81;21147;-73
2021/01/25 02:59:17;;;;;;;22.87;12.82;;;;;;;0.09;87.86;98885.31;1761920;81;21196;-73
2021/01/25 03:01:45;;;;;;;29.45;15.10;;;;;;;0.09;87.85;98887.11;1761820;80;21616;-73
2021/01/25 03:04:11;;;;;;;26.60;14.85;;;;;;;0.08;87.85;98884.97;1761903;81;21552;-73
2021/01/25 03:06:37;;;;;;;29.70;16.05;;;;;;;0.06;87.85;98888.23;1761975;81;21115;-73
2021/01/25 03:09:04;;;;;;;24.25;14.20;;;;;;;0.05;87.83;98883.95;1761862;81;21620;-73
2021/01/25 03:11:31;;;;;;;25.65;14.00;;;;;;;0.04;87.82;98882.28;1761959;81;21265;-73
2021/01/25 03:14:09;;;;;;;32.08;16.35;;;;;;;0.04;87.83;98887.52;1760432;81;21594;-73
2021/01/25 03:16:36;;;;;;;29.12;17.70;;;;;;;0.04;87.83;98889.31;1759380;81;21189;-73
2021/01/25 03:19:04;;;;;;;27.75;17.77;;;;;;;0.05;87.83;98887.05;1759807;81;21172;-73
2021/01/25 03:21:32;;;;;;;33.70;21.60;;;;;;;0.05;87.83;98890.50;1760179;81;21622;-73
2021/01/25 03:23:59;;;;;;;32.35;19.95;;;;;;;0.05;87.83;98889.66;1759601;81;22178;-73
2021/01/25 03:26:26;;;;;;;30.82;17.80;;;;;;;0.05;87.84;98890.50;1759247;81;21674;-73
2021/01/25 03:28:52;;;;;;;28.60;16.27;;;;;;;0.07;87.85;98892.98;1759564;81;21177;-73
2021/01/25 03:31:19;;;;;;;34.03;18.42;;;;;;;0.07;87.85;98897.72;1759261;81;21161;-73
2021/01/25 03:33:45;;;;;;;31.77;18.20;;;;;;;0.05;87.87;98894.42;1759512;81;21169;-75
2021/01/25 03:36:11;;;;;;;28.95;15.72;;;;;;;0.02;87.88;98886.85;1759404;81;21219;-75
2021/01/25 03:38:37;;;;;;;23.90;13.18;;;;;;;0.01;87.88;98894.36;1759563;81;21137;-75
2021/01/25 03:41:04;;;;;;;24.25;13.38;;;;;;;0.00;87.89;98896.66;1759435;81;21220;-75
2021/01/25 03:43:30;;;;;;;20.50;12.68;;;;;;;-0.02;87.88;98894.16;1751542;81;21174;-75
2021/01/25 03:45:57;;;;;;;26.45;13.08;;;;;;;0.00;87.90;98897.97;1723375;83;21142;-75
2021/01/25 03:48:23;;;;;;;24.72;14.23;;;;;;;-0.01;87.88;98902.86;1751472;81;21188;-75
2021/01/25 03:50:49;;;;;;;26.07;18.45;;;;;;;0.02;87.90;98899.95;1751650;81;21156;-75
2021/01/25 03:53:16;;;;;;;34.85;21.12;;;;;;;0.03;87.91;98905.55;1751729;81;21171;-75
2021/01/25 03:55:45;;;;;;;31.65;21.07;;;;;;;0.04;87.91;98903.72;1751682;81;21116;-75
2021/01/25 03:58:11;;;;;;;32.23;18.90;;;;;;;0.03;87.92;98912.09;1752156;81;21132;-75
2021/01/25 04:00:38;;;;;;;28.98;16.73;;;;;;;0.06;87.92;98911.81;1751814;81;21740;-76
2021/01/25 04:03:04;;;;;;;29.65;16.02;;;;;;;0.08;87.92;98913.80;1751567;81;21203;-75
2021/01/25 04:05:30;;;;;;;31.17;16.07;;;;;;;0.10;87.93;98913.19;1751444;81;21176;-75
2021/01/25 04:07:57;;;;;;;26.87;15.50;;;;;;;0.11;87.94;98913.51;1751737;81;21235;-75
2021/01/25 04:10:23;;;;;;;25.82;13.88;;;;;;;0.12;87.95;98908.63;1751795;81;21179;-75
2021/01/25 04:12:49;;;;;;;23.73;14.15;;;;;;;0.12;87.95;98913.03;1752676;81;21590;-75
2021/01/25 04:15:16;;;;;;;28.50;15.80;;;;;;;0.10;87.94;98910.56;1758974;81;21185;-75
2021/01/25 04:17:42;;;;;;;28.92;15.93;;;;;;;0.07;87.97;98913.44;1759051;81;21541;-75
2021/01/25 04:20:09;;;;;;;35.40;21.40;;;;;;;0.06;87.95;98913.60;1759097;81;21179;-75
2021/01/25 04:22:37;;;;;;;37.55;22.50;;;;;;;0.04;87.98;98911.58;1759042;81;21253;-75
2021/01/25 04:25:06;;;;;;;46.92;27.05;;;;;;;0.05;87.98;98919.32;1759152;80;21223;-75
2021/01/25 04:27:32;;;;;;;44.20;23.52;;;;;;;0.07;88.01;98912.64;1759132;81;21595;-75
2021/01/25 04:29:59;;;;;;;37.88;20.35;;;;;;;0.06;88.01;98919.67;1759198;81;21142;-75
2021/01/25 04:32:25;;;;;;;34.95;16.90;;;;;;;0.07;88.02;98923.12;1759022;81;21193;-75
2021/01/25 04:34:54;;;;;;;41.42;18.30;;;;;;;0.07;88.01;98929.16;1758967;80;21169;-75
2021/01/25 04:37:20;;;;;;;32.13;13.43;;;;;;;0.07;88.02;98927.86;1759409;81;21182;-75
2021/01/25 04:39:47;;;;;;;47.98;20.08;;;;;;;0.08;88.02;98928.20;1758859;81;21579;-75
2021/01/25 04:42:13;;;;;;;53.92;24.87;;;;;;;0.09;88.04;98929.88;1765047;80;21183;-75
2021/01/25 04:44:39;;;;;;;41.40;21.40;;;;;;;0.11;88.06;98935.78;1777540;80;21132;-75
2021/01/25 04:47:06;;;;;;;40.55;19.60;;;;;;;0.13;88.05;98940.91;1777610;80;21188;-75
2021/01/25 04:49:32;;;;;;;43.05;19.12;;;;;;;0.12;88.09;98937.45;1778060;80;21267;-74
2021/01/25 04:51:58;;;;;;;44.98;21.20;;;;;;;0.12;88.09;98937.92;1778097;80;21144;-75
2021/01/25 04:54:25;;;;;;;44.33;22.82;;;;;;;0.12;88.10;98942.69;1777601;80;21651;-75
2021/01/25 04:56:52;;;;;;;44.98;21.75;;;;;;;0.12;88.10;98938.76;1777586;80;21124;-73
2021/01/25 04:59:20;;;;;;;40.52;22.30;;;;;;;0.13;88.11;98939.59;1777667;80;21557;-74
2021/01/25 05:01:46;;;;;;;32.23;16.77;;;;;;;0.12;88.11;98941.37;1777609;80;21144;-74
2021/01/25 05:04:12;;;;;;;33.63;16.05;;;;;;;0.13;88.12;98943.05;1777379;80;21164;-73
2021/01/25 05:06:39;;;;;;;37.88;18.60;;;;;;;0.12;88.12;98942.69;1777342;80;21125;-73
2021/01/25 05:09:05;;;;;;;40.78;20.17;;;;;;;0.14;88.12;98945.19;1777641;80;21572;-73
2021/01/25 05:11:31;;;;;;;42.15;19.85;;;;;;;0.16;88.14;98949.31;1777449;80;21121;-73
2021/01/25 05:14:05;;;;;;;37.45;19.35;;;;;;;0.15;88.15;98956.82;1766820;80;21199;-73
2021/01/25 05:16:32;;;;;;;44.25;20.60;;;;;;;0.13;88.16;98949.59;1759630;81;21173;-73
2021/01/25 05:19:01;;;;;;;50.03;23.07;;;;;;;0.13;88.16;98950.91;1759390;81;21146;-73
2021/01/25 05:21:36;;;;;;;48.17;23.15;;;;;;;0.15;88.17;98962.54;1759365;81;21201;-73
2021/01/25 05:24:05;;;;;;;56.05;23.75;;;;;;;0.18;88.18;98959.64;1759520;81;21172;-74
2021/01/25 05:26:36;;;;;;;67.20;24.10;;;;;;;0.19;88.19;98955.58;1759536;81;21214;-75
2021/01/25 05:29:03;;;;;;;38.35;16.70;;;;;;;0.22;88.19;98961.02;1759443;81;21141;-75
2021/01/25 05:31:29;;;;;;;38.95;18.07;;;;;;;0.24;88.22;98960.41;1759220;81;21117;-73
2021/01/25 05:33:56;;;;;;;40.25;17.73;;;;;;;0.24;88.22;98966.48;1759618;81;21197;-73
2021/01/25 05:36:25;;;;;;;39.55;18.02;;;;;;;0.24;88.23;98965.66;1759373;81;21554;-73
2021/01/25 05:38:52;;;;;;;38.33;19.30;;;;;;;0.24;88.24;98967.80;1759390;81;21165;-73
2021/01/25 05:41:19;;;;;;;38.73;18.17;;;;;;;0.23;88.26;98968.75;1754782;81;21200;-73
2021/01/25 05:43:47;;;;;;;34.33;16.27;;;;;;;0.21;88.24;98965.94;1761153;81;21180;-73
2021/01/25 05:46:15;;;;;;;35.58;15.60;;;;;;;0.21;88.24;98966.73;1761667;81;21147;-73
2021/01/25 05:48:42;;;;;;;30.30;15.25;;;;;;;0.18;88.25;98967.02;1744204;81;21144;-73
2021/01/25 05:51:16;;;;;;;31.65;14.30;;;;;;;0.16;88.24;98972.90;1761777;81;21208;-73
2021/01/25 05:53:46;;;;;;;25.95;13.55;;;;;;;0.17;88.24;98976.35;1761409;81;21181;-73
2021/01/25 05:56:13;;;;;;;28.27;13.75;;;;;;;0.15;88.24;98973.86;1761378;81;21148;-73
2021/01/25 05:58:40;;;;;;;26.27;13.30;;;;;;;0.16;88.22;98980.77;1761626;81;21160;-73
2021/01/25 06:01:08;;;;;;;23.20;12.47;;;;;;;0.18;88.25;98977.98;1761648;81;21858;-73
2021/01/25 06:03:37;;;;;;;20.25;10.63;;;;;;;0.16;88.23;98980.77;1761656;81;21304;-73
2021/01/25 06:06:12;;;;;;;20.30;10.48;;;;;;;0.16;88.25;98982.07;1761706;81;21184;-73
2021/01/25 06:08:56;;;;;;;24.45;11.60;;;;;;;0.17;88.25;98985.05;1761768;81;21104;-73
2021/01/25 06:11:32;;;;;;;21.52;11.22;;;;;;;0.17;88.24;98982.91;1761057;81;21132;-73
2021/01/25 06:14:21;;;;;;;25.82;12.85;;;;;;;0.20;88.25;98986.55;1762798;81;21141;-73
2021/01/25 06:16:50;;;;;;;26.02;11.95;;;;;;;0.22;88.26;98989.38;1758886;81;21205;-73
2021/01/25 06:19:22;;;;;;;23.60;9.90;;;;;;;0.24;88.25;98985.31;1758898;80;21173;-73
2021/01/25 06:21:49;;;;;;;17.52;10.93;;;;;;;0.26;88.25;98988.13;1760009;81;21150;-73
2021/01/25 06:24:16;;;;;;;36.50;18.70;;;;;;;0.30;88.26;98994.75;1758738;81;21621;-73
2021/01/25 06:26:45;;;;;;;24.98;14.28;;;;;;;0.31;88.25;99000.35;1758870;81;21201;-73
2021/01/25 06:29:11;;;;;;;27.50;17.82;;;;;;;0.31;88.24;99002.97;1758911;81;22179;-73
2021/01/25 06:31:40;;;;;;;34.05;24.50;;;;;;;0.29;88.24;99012.75;1705769;81;21561;-73
2021/01/25 06:34:11;;;;;;;38.28;20.72;;;;;;;0.30;88.24;99009.17;1758987;81;21648;-73
2021/01/25 06:36:39;;;;;;;44.00;23.07;;;;;;;0.31;88.25;99011.31;1757123;81;21201;-73
2021/01/25 06:39:06;;;;;;;48.87;25.52;;;;;;;0.32;88.23;99007.70;1759041;81;21229;-73
2021/01/25 06:41:39;;;;;;;51.65;26.68;;;;;;;0.31;88.24;99014.77;1758989;81;21220;-73
2021/01/25 06:44:07;;;;;;;49.85;23.95;;;;;;;0.32;88.22;99020.33;1756127;81;21194;-73
2021/01/25 06:46:35;;;;;;;215.10;52.85;;;;;;;0.31;88.20;99018.70;1756020;81;21189;-73
2021/01/25 06:49:04;;;;;;;471.33;127.95;;;;;;;0.31;88.21;99027.88;1755998;81;21122;-73
2021/01/25 06:51:30;;;;;;;346.05;107.32;;;;;;;0.28;88.17;99024.20;1755727;81;21071;-73
2021/01/25 06:53:59;;;;;;;551.05;278.48;;;;;;;0.27;88.18;99027.80;1755979;81;22170;-73
2021/01/25 06:56:26;;;;;;;350.60;182.65;;;;;;;0.26;88.17;99030.08;1751322;81;26782;-75
2021/01/25 06:58:53;;;;;;;89.80;44.18;;;;;;;0.26;88.17;99034.00;1755770;81;21644;-73
2021/01/25 07:01:22;;;;;;;202.75;96.17;;;;;;;0.25;88.17;99039.38;1755740;81;21181;-73
2021/01/25 07:03:57;;;;;;;329.40;154.65;;;;;;;0.23;88.14;99032.98;1755912;81;21154;-73
2021/01/25 07:06:35;;;;;;;166.73;73.17;;;;;;;0.25;88.14;99041.99;1755816;81;22632;-73
2021/01/25 07:09:04;;;;;;;229.85;108.03;;;;;;;0.23;88.14;99048.70;1755971;80;21546;-73
2021/01/25 07:11:31;;;;;;;129.15;60.33;;;;;;;0.24;88.13;99050.84;1768552;80;21179;-73
2021/01/25 07:13:58;;;;;;;101.50;46.68;;;;;;;0.24;88.10;99062.16;1769947;80;21643;-73
2021/01/25 07:16:24;;;;;;;88.15;40.63;;;;;;;0.26;88.12;99064.63;1755941;81;21137;-73
2021/01/25 07:18:52;;;;;;;172.43;93.55;;;;;;;0.25;88.10;99069.05;1724360;82;21206;-73
2021/01/25 07:21:18;;;;;;;192.75;108.90;;;;;;;0.24;88.11;99070.03;1755832;80;21223;-73
2021/01/25 07:23:45;;;;;;;71.40;37.13;;;;;;;0.23;88.11;99076.23;1756132;81;21504;-73
2021/01/25 07:26:14;;;;;;;37.45;17.55;;;;;;;0.22;88.10;99075.88;1756008;81;21142;-73
2021/01/25 07:28:41;;;;;;;26.25;13.68;;;;;;;0.23;88.10;99075.39;1756005;80;21166;-73
2021/01/25 07:31:08;;;;;;;33.30;15.72;;;;;;;0.23;88.10;99080.16;1756034;81;22174;-73
2021/01/25 07:33:34;;;;;;;38.48;18.37;;;;;;;0.24;88.10;99081.83;1724332;82;21174;-73
2021/01/25 07:36:01;;;;;;;24.77;13.70;;;;;;;0.25;88.09;99084.77;1755977;81;21670;-73
2021/01/25 07:38:30;;;;;;;41.30;19.48;;;;;;;0.25;88.08;99086.08;1724416;83;21162;-73
2021/01/25 07:40:58;;;;;;;33.05;17.67;;;;;;;0.24;88.07;99083.14;1756154;81;22264;-73
2021/01/25 07:43:27;;;;;;;42.83;21.60;;;;;;;0.25;88.07;99084.77;1739836;81;21220;-73
2021/01/25 07:45:54;;;;;;;24.72;14.50;;;;;;;0.27;88.07;99089.89;1725643;81;21183;-73
2021/01/25 07:48:21;;;;;;;23.22;13.58;;;;;;;0.28;88.05;99094.98;1725695;83;21191;-73
2021/01/25 07:50:54;;;;;;;23.25;12.37;;;;;;;0.29;88.05;99095.81;1725646;83;21549;-73
2021/01/25 07:53:20;;;;;;;40.65;17.55;;;;;;;0.30;88.04;99099.62;1727133;83;21151;-73
2021/01/25 07:55:47;;;;;;;28.47;13.18;;;;;;;0.34;88.05;99098.38;1725717;83;22115;-73
2021/01/25 07:58:13;;;;;;;47.98;21.07;;;;;;;0.35;88.05;99100.02;1725646;83;21155;-73
2021/01/25 08:00:42;;;;;;;31.60;16.42;;;;;;;0.37;88.04;99103.34;1725881;83;21143;-73
2021/01/25 08:03:29;;;;;;;28.02;15.55;;;;;;;0.37;88.03;99107.28;1725796;83;21160;-73
2021/01/25 08:06:03;;;;;;;23.50;14.07;;;;;;;0.35;88.01;99101.33;1702254;82;21222;-73
2021/01/25 08:08:29;;;;;;;30.27;19.07;;;;;;;0.32;88.00;99105.54;1708910;81;21995;-78
2021/01/25 08:10:56;;;;;;;37.58;18.27;;;;;;;0.29;87.99;99104.51;1720104;82;21179;-75
2021/01/25 08:13:30;;;;;;;51.23;24.40;;;;;;;0.29;87.97;99107.13;1705893;83;21144;-75
2021/01/25 08:16:03;;;;;;;39.80;20.70;;;;;;;0.31;87.96;99105.70;1723309;82;21206;-76
2021/01/25 08:18:51;;;;;;;34.25;17.42;;;;;;;0.32;87.95;99114.72;1717676;82;21138;-76
2021/01/25 08:21:21;;;;;;;41.53;20.97;;;;;;;0.35;87.95;99122.30;1709928;82;21264;-76
2021/01/25 08:23:47;;;;;;;;;;;;;;;0.38;87.95;99119.91;1701370;82;21616;-75
2021/01/25 08:26:15;;;;;;;52.98;22.85;;;;;;;0.41;87.93;99130.95;1712181;82;20314;-76
2021/01/25 08:28:44;;;;;;;46.63;23.20;;;;;;;0.43;87.94;99135.56;1707809;82;21176;-76
2021/01/25 08:31:15;;;;;;;37.50;18.27;;;;;;;0.44;87.92;99133.78;1722392;82;21200;-76
2021/01/25 08:33:46;;;;;;;42.03;22.05;;;;;;;0.44;87.94;99128.05;1726889;82;21197;-75
2021/01/25 08:36:13;;;;;;;36.70;20.80;;;;;;;0.43;87.93;99135.56;1708082;82;21671;-76
2021/01/25 08:38:42;;;;;;;51.85;24.70;;;;;;;0.43;87.94;99135.56;1705289;82;21187;-77
2021/01/25 08:41:32;;;;;;;43.85;23.18;;;;;;;0.43;87.92;99142.60;1700473;82;22043;-77
2021/01/25 08:44:01;;;;;;;37.67;19.25;;;;;;;0.43;87.92;99135.56;1719928;81;21191;-77
2021/01/25 08:46:33;;;;;;;42.20;23.70;;;;;;;0.44;87.64;99142.95;1740008;81;21272;-77
2021/01/25 08:49:19;;;;;;;32.33;16.25;;;;;;;0.45;87.89;99144.62;1751677;81;21613;-77
2021/01/25 08:52:07;;;;;;;34.67;18.98;;;;;;;0.50;87.92;99145.86;1737273;82;21225;-78
2021/01/25 08:54:37;;;;;;;41.30;21.85;;;;;;;0.52;87.91;99148.83;1736525;82;21211;-76
2021/01/25 08:57:23;;;;;;;54.50;27.70;;;;;;;0.56;87.89;99148.43;1737140;82;21124;-76
2021/01/25 08:59:49;;;;;;;58.70;28.83;;;;;;;0.59;87.90;99153.88;1765847;81;22217;-75
2021/01/25 09:02:21;;;;;;;61.68;31.12;;;;;;;0.62;87.89;99149.66;1771006;81;21211;-75
2021/01/25 09:04:51;;;;;;;57.78;28.92;;;;;;;0.65;87.90;99150.22;1770749;81;21645;-76
2021/01/25 09:07:20;;;;;;;59.35;32.90;;;;;;;0.67;87.89;99155.34;1803332;79;21163;-76
2021/01/25 09:09:47;;;;;;;59.03;32.73;;;;;;;0.68;87.88;99155.66;1803515;79;21107;-77
2021/01/25 09:12:15;;;;;;;68.00;34.27;;;;;;;0.74;87.89;99159.06;1799732;79;21199;-77
2021/01/25 09:14:41;;;;;;;56.65;29.25;;;;;;;0.75;87.88;99162.02;1758509;80;21158;-77
2021/01/25 09:17:09;;;;;;;53.55;25.48;;;;;;;0.76;87.86;99168.45;1741518;81;21184;-77
2021/01/25 09:19:37;;;;;;;57.00;29.95;;;;;;;0.78;87.85;99165.67;1747446;81;21765;-77
2021/01/25 09:22:05;;;;;;;58.48;32.73;;;;;;;0.81;87.84;99171.47;1752730;81;21163;-77
2021/01/25 09:24:31;;;;;;;55.92;28.23;;;;;;;0.85;87.83;99172.85;1756354;81;22127;-78
2021/01/25 09:26:57;;;;;;;65.40;30.40;;;;;;;0.88;87.86;99181.75;1740556;81;21625;-78
2021/01/25 09:29:24;;;;;;;48.38;23.35;;;;;;;0.89;87.86;99180.80;1742970;81;21155;-77
2021/01/25 09:31:50;;;;;;;55.63;23.67;;;;;;;0.88;87.83;99177.02;1751649;81;21175;-77
2021/01/25 09:34:17;;;;;;;53.60;23.77;;;;;;;0.88;87.82;99179.64;1731029;82;21207;-78
2021/01/25 09:36:43;;;;;;;39.48;19.55;;;;;;;0.85;87.79;99179.41;1731652;82;21636;-77
2021/01/25 09:39:10;;;;;;;42.62;21.20;;;;;;;0.86;87.76;99181.55;1745359;81;21172;-78
2021/01/25 09:41:38;;;;;;;46.73;24.52;;;;;;;0.89;87.76;99178.66;1741696;81;21179;-79
2021/01/25 09:44:05;;;;;;;34.13;18.50;;;;;;;0.89;87.72;99179.96;1727429;81;21817;-78
2021/01/25 09:46:32;;;;;;;42.75;24.37;;;;;;;0.90;87.73;99182.94;1703092;82;21646;-78
2021/01/25 09:48:58;;;;;;;45.55;27.00;;;;;;;0.92;87.72;99186.24;1714764;82;21279;-78
2021/01/25 09:51:25;;;;;;;59.93;29.25;;;;;;;0.94;87.70;99184.33;1705971;82;21620;-78
2021/01/25 09:53:51;;;;;;;47.08;26.77;;;;;;;0.95;87.69;99185.99;1743993;81;21216;-78
2021/01/25 09:56:17;;;;;;;62.35;28.50;;;;;;;0.94;87.69;99181.70;1720812;82;21187;-77
2021/01/25 09:58:43;;;;;;;64.40;31.05;;;;;;;0.93;87.68;99182.18;1714191;82;21196;-78
2021/01/25 10:01:10;;;;;;;65.28;30.82;;;;;;;0.94;87.67;99188.27;1707154;82;21231;-78
2021/01/25 10:03:36;;;;;;;42.33;20.92;;;;;;;0.99;87.67;99189.97;1734830;82;21212;-78
2021/01/25 10:06:03;;;;;;;40.85;21.25;;;;;;;0.99;87.62;99187.34;1732772;82;21167;-78
2021/01/25 10:08:29;;;;;;;35.20;19.50;;;;;;;0.98;87.61;99190.96;1720222;82;21747;-78
2021/01/25 10:10:55;;;;;;;40.65;21.68;;;;;;;0.99;87.62;99187.34;1710951;82;21179;-77
2021/01/25 10:13:23;;;;;;;51.45;24.82;;;;;;;1.02;87.61;99191.03;1722789;82;22250;-77
2021/01/25 10:15:49;;;;;;;36.55;19.27;;;;;;;1.00;87.61;99187.70;1719954;82;21585;-78
2021/01/25 10:18:16;;;;;;;47.43;27.17;;;;;;;0.97;87.59;99187.50;1712775;82;21202;-78
2021/01/25 10:20:43;;;;;;;45.83;24.95;;;;;;;0.97;87.59;99184.05;1712785;82;21170;-77
2021/01/25 10:23:09;;;;;;;48.68;26.55;;;;;;;0.97;87.58;99186.67;1723463;82;21147;-78
2021/01/25 10:25:36;;;;;;;63.52;33.58;;;;;;;0.95;87.54;99188.62;1718081;82;21269;-78
2021/01/25 10:28:02;;;;;;;54.73;28.90;;;;;;;0.93;87.52;99193.16;1722572;82;21694;-77
2021/01/25 10:30:29;;;;;;;66.65;28.70;;;;;;;0.92;87.49;99188.87;1711329;82;21168;-78
2021/01/25 10:32:56;;;;;;;32.00;16.45;;;;;;;0.96;87.49;99192.87;1728288;81;21246;-78
2021/01/25 10:35:23;;;;;;;27.42;15.03;;;;;;;0.93;87.47;99188.74;1698495;83;21164;-78
2021/01/25 10:37:51;;;;;;;30.08;16.25;;;;;;;0.95;87.45;99192.05;1711061;82;21715;-78
2021/01/25 10:40:17;;;;;;;33.90;18.82;;;;;;;0.95;87.45;99190.73;1716679;82;21200;-79
2021/01/25 10:42:44;;;;;;;46.92;23.10;;;;;;;0.93;87.42;99192.68;1727596;81;21242;-78
2021/01/25 10:45:11;;;;;;;36.53;19.27;;;;;;;0.91;87.40;99193.31;1732216;81;21121;-77
2021/01/25 10:47:37;;;;;;;46.63;25.77;;;;;;;0.89;87.38;99197.86;1734358;81;21163;-77
2021/01/25 10:50:06;;;;;;;41.02;21.55;;;;;;;0.88;87.36;99196.70;1739442;81;21224;-77
2021/01/25 10:52:33;;;;;;;31.20;17.87;;;;;;;0.87;87.34;99199.80;1741256;81;21167;-77
2021/01/25 10:54:59;;;;;;;29.57;17.85;;;;;;;0.87;87.31;99201.59;1736035;81;21494;-77
2021/01/25 10:57:26;;;;;;;48.95;26.62;;;;;;;0.89;87.29;99204.89;1737744;81;21168;-77
2021/01/25 10:59:52;;;;;;;51.23;22.32;;;;;;;0.89;87.30;99205.73;1739698;81;21158;-77
2021/01/25 11:02:19;;;;;;;44.53;21.00;;;;;;;0.91;87.26;99210.85;1737258;81;21172;-77
2021/01/25 11:04:46;;;;;;;61.92;27.40;;;;;;;0.94;87.24;99198.28;1735478;81;21204;-78
2021/01/25 11:07:12;;;;;;;95.22;36.20;;;;;;;0.95;87.22;99205.16;1738800;81;21181;-78
2021/01/25 11:09:39;;;;;;;43.90;22.58;;;;;;;0.97;87.21;99210.29;1741366;81;21609;-78
2021/01/25 11:12:05;;;;;;;47.00;23.42;;;;;;;0.95;87.18;99208.30;1737051;81;21692;-78
2021/01/25 11:14:32;;;;;;;55.85;26.95;;;;;;;0.94;87.16;99209.27;1737720;81;21222;-78
2021/01/25 11:16:58;;;;;;;33.83;17.55;;;;;;;0.94;87.14;99202.70;1746335;81;21167;-78
2021/01/25 11:19:24;;;;;;;42.15;19.67;;;;;;;0.93;87.11;99214.98;1748739;81;21198;-78
2021/01/25 11:21:51;;;;;;;39.45;20.85;;;;;;;0.92;87.08;99215.95;1751752;81;21143;-77
2021/01/25 11:24:17;;;;;;;37.17;19.67;;;;;;;0.95;87.07;99218.80;1745835;81;21560;-78
2021/01/25 11:26:44;;;;;;;38.58;19.85;;;;;;;0.94;87.04;99214.51;1746499;81;21201;-78
2021/01/25 11:29:10;;;;;;;47.15;23.57;;;;;;;0.95;87.02;99212.23;1754524;81;21178;-77